Time;durP1;ratioP1;P1;durP2;ratioP2;P2;SDS_P1;SDS_P2;PMS_P1;PMS_P2;Temp;Humidity;BMP_temperature;BMP_pressure;BME280_temperature;BME280_humidity;BME280_pressure;Samples;Min_cycle;Max_cycle;Signal;HPM_P1;HPM_P2
2022/02/08 00:00:49;;;;;;;102.62;27.05;;;;;;;4.14;100.00;99843.97;1692818;84;21096;-84
2022/02/08 00:03:18;;;;;;;82.53;24.57;;;;;;;4.15;100.00;99856.24;1696619;83;21005;-84
2022/02/08 00:05:54;;;;;;;73.97;23.15;;;;;;;4.17;100.00;99854.16;1696733;84;21124;-84
2022/02/08 00:08:13;;;;;;;72.62;23.55;;;;;;;4.14;100.00;99856.77;1692829;83;21574;-84
2022/02/08 00:10:39;;;;;;;63.13;21.15;;;;;;;4.13;100.00;99855.16;1696931;83;21151;-84
2022/02/08 00:13:06;;;;;;;59.55;20.80;;;;;;;4.12;100.00;99847.38;1696638;84;21105;-84
2022/02/08 00:15:31;;;;;;;66.07;20.52;;;;;;;4.09;100.00;99851.36;1696941;84;21109;-84
2022/02/08 00:17:57;;;;;;;54.03;19.48;;;;;;;4.04;100.00;99849.38;1696772;84;20890;-84
2022/02/08 00:20:23;;;;;;;63.63;21.27;;;;;;;4.01;100.00;99849.85;1672284;84;20954;-84
2022/02/08 00:22:49;;;;;;;65.52;21.95;;;;;;;4.01;100.00;99845.86;1696764;83;21794;-83
2022/02/08 00:25:15;;;;;;;72.25;21.62;;;;;;;4.03;100.00;99854.44;1696668;84;21605;-84
2022/02/08 00:27:41;;;;;;;61.05;21.87;;;;;;;4.02;100.00;99852.80;1696957;84;20894;-84
2022/02/08 00:30:08;;;;;;;68.28;21.45;;;;;;;4.04;100.00;99852.05;1697140;83;20883;-84
2022/02/08 00:32:34;;;;;;;69.42;22.85;;;;;;;4.04;100.00;99848.58;1696829;83;21078;-84
2022/02/08 00:35:00;;;;;;;65.62;20.85;;;;;;;4.06;100.00;99846.50;1729623;82;21075;-83
2022/02/08 00:37:26;;;;;;;71.17;21.52;;;;;;;4.11;100.00;99845.24;1746888;80;20885;-84
2022/02/08 00:39:52;;;;;;;63.35;22.27;;;;;;;4.16;100.00;99848.55;1747045;81;20897;-84
2022/02/08 00:42:20;;;;;;;62.83;21.87;;;;;;;4.18;100.00;99850.47;1750663;81;21743;-84
2022/02/08 00:44:55;;;;;;;62.10;20.80;;;;;;;4.21;100.00;99845.99;1754726;81;21039;-83
2022/02/08 00:49:49;;;;;;;60.52;20.17;;;;;;;4.22;100.00;99844.41;1677029;84;21090;-84
2022/02/08 00:52:16;;;;;;;67.70;21.42;;;;;;;4.22;100.00;99847.08;1677066;85;20986;-84
2022/02/08 00:54:45;;;;;;;66.77;20.75;;;;;;;4.20;100.00;99841.69;1677079;84;21068;-84
2022/02/08 00:57:12;;;;;;;67.70;22.05;;;;;;;4.18;100.00;99847.80;1635388;87;21033;-84
2022/02/08 00:59:38;;;;;;;61.75;21.10;;;;;;;4.15;100.00;99841.08;1635647;87;21184;-84
2022/02/08 01:02:06;;;;;;;56.30;20.10;;;;;;;4.12;100.00;99838.05;1635518;87;21037;-84
2022/02/08 01:04:34;;;;;;;56.05;19.55;;;;;;;4.08;100.00;99840.39;1613131;88;22815;-84
2022/02/08 01:07:02;;;;;;;58.87;19.60;;;;;;;4.02;100.00;99840.80;1612686;89;21566;-84
2022/02/08 01:12:15;;;;;;;53.78;19.10;;;;;;;3.87;100.00;99841.82;1612840;88;21015;-83
2022/02/08 01:14:43;;;;;;;60.45;20.12;;;;;;;3.87;100.00;99836.48;1609777;89;21034;-83
2022/02/08 01:17:13;;;;;;;54.15;20.25;;;;;;;3.90;100.00;99852.54;1606279;89;21069;-84
2022/02/08 01:19:45;;;;;;;56.73;19.92;;;;;;;3.92;100.00;99856.59;1605840;89;21105;-84
2022/02/08 01:22:06;;;;;;;54.48;19.17;;;;;;;3.99;100.00;99867.12;1606072;88;21585;-84
2022/02/08 01:24:32;;;;;;;61.98;18.77;;;;;;;4.01;100.00;99855.72;1606546;89;21147;-84
2022/02/08 01:27:05;;;;;;;60.90;19.25;;;;;;;4.06;100.00;99860.63;1606130;89;20935;-83
2022/02/08 01:29:38;;;;;;;58.60;20.27;;;;;;;4.08;100.00;99861.19;1606306;88;21022;-84
2022/02/08 01:32:01;;;;;;;62.78;18.35;;;;;;;4.12;100.00;99859.38;1606165;88;21097;-84
2022/02/08 01:34:30;;;;;;;58.48;19.45;;;;;;;4.14;100.00;99861.30;1606010;88;21065;-84
2022/02/08 01:37:05;;;;;;;50.48;18.73;;;;;;;4.12;100.00;99856.22;1606183;88;21074;-83
2022/02/08 01:39:30;;;;;;;56.75;17.95;;;;;;;4.14;100.00;99853.30;1606432;88;21129;-83
2022/02/08 01:42:03;;;;;;;56.50;19.40;;;;;;;4.09;100.00;99848.16;1604247;89;21685;-83
2022/02/08 01:47:10;;;;;;;61.37;19.42;;;;;;;4.08;100.00;99848.38;1597983;89;21191;-83
2022/02/08 01:49:34;;;;;;;63.85;19.23;;;;;;;4.04;100.00;99841.39;1602799;89;21105;-83
2022/02/08 01:51:59;;;;;;;65.28;21.15;;;;;;;4.02;100.00;99843.99;1603021;89;21062;-83
2022/02/08 01:54:26;;;;;;;69.72;20.05;;;;;;;3.99;100.00;99844.47;1639612;86;21065;-83
2022/02/08 01:56:54;;;;;;;75.22;20.68;;;;;;;3.98;100.00;99848.99;1657667;85;21033;-83
2022/02/08 01:59:23;;;;;;;73.50;21.68;;;;;;;3.98;100.00;99846.33;1657966;86;21107;-83
2022/02/08 02:01:50;;;;;;;84.13;23.18;;;;;;;3.98;100.00;99844.99;1721880;81;21818;-83
2022/02/08 02:04:16;;;;;;;84.67;23.42;;;;;;;4.02;100.00;99843.99;1754233;81;21019;-83
2022/02/08 02:06:42;;;;;;;76.42;22.60;;;;;;;4.03;100.00;99847.77;1754617;80;21087;-83
2022/02/08 02:09:08;;;;;;;83.30;23.67;;;;;;;4.00;100.00;99846.91;1754584;80;21051;-83
2022/02/08 02:11:37;;;;;;;87.22;24.77;;;;;;;4.03;100.00;99845.60;1754384;81;21484;-83
2022/02/08 02:14:03;;;;;;;89.05;23.98;;;;;;;4.05;100.00;99845.66;1754441;81;21191;-83
2022/02/08 02:18:56;;;;;;;128.65;35.40;;;;;;;4.02;100.00;99840.00;1662984;86;20966;-83
2022/02/08 02:21:23;;;;;;;130.85;39.30;;;;;;;4.00;100.00;99850.91;1663330;86;20974;-83
2022/02/08 02:23:51;;;;;;;113.03;28.65;;;;;;;4.01;100.00;99850.38;1663432;86;21022;-83
2022/02/08 02:26:17;;;;;;;89.97;24.67;;;;;;;3.98;100.00;99854.85;1662918;86;22061;-83
2022/02/08 02:28:43;;;;;;;90.90;22.50;;;;;;;3.93;100.00;99847.55;1663286;85;21014;-83
2022/02/08 02:31:11;;;;;;;86.05;22.25;;;;;;;3.84;100.00;99847.62;1663332;86;20935;-83
2022/02/08 02:33:37;;;;;;;91.92;22.60;;;;;;;3.87;100.00;99861.28;1663460;86;21058;-83
2022/02/08 02:36:05;;;;;;;78.62;23.27;;;;;;;3.85;100.00;99858.06;1663346;86;20907;-83
2022/02/08 02:38:31;;;;;;;79.82;21.60;;;;;;;3.83;100.00;99864.14;1663295;86;21143;-83
2022/02/08 02:40:57;;;;;;;89.32;22.00;;;;;;;3.84;100.00;99870.27;1663055;86;20915;-83
2022/02/08 02:43:25;;;;;;;76.75;21.60;;;;;;;3.84;100.00;99867.61;1668537;85;21711;-83
2022/02/08 02:45:51;;;;;;;79.67;21.85;;;;;;;3.84;100.00;99863.61;1670605;85;21120;-82
2022/02/08 02:48:16;;;;;;;84.45;22.32;;;;;;;3.81;100.00;99863.55;1647953;85;21104;-83
2022/02/08 02:50:49;;;;;;;76.22;21.57;;;;;;;3.80;100.00;99865.13;1670813;85;21147;-83
2022/02/08 02:53:10;;;;;;;80.90;23.12;;;;;;;3.77;100.00;99866.41;1666963;85;21034;-83
2022/02/08 02:55:36;;;;;;;84.30;21.35;;;;;;;3.77;100.00;99865.07;1684425;81;20908;-83
2022/02/08 02:58:03;;;;;;;76.65;21.87;;;;;;;3.78;100.00;99868.55;1762388;81;22113;-83
2022/02/08 03:00:37;;;;;;;83.22;20.27;;;;;;;3.81;100.00;99872.07;1755981;81;21069;-83
2022/02/08 03:19:28;;;;;;;83.55;23.57;;;;;;;4.04;100.00;99879.23;1688951;84;21179;-84
2022/02/08 03:21:54;;;;;;;82.10;24.60;;;;;;;4.07;100.00;99876.10;1689024;84;21022;-85
2022/02/08 03:24:20;;;;;;;69.62;22.80;;;;;;;4.08;100.00;99880.38;1689213;84;20887;-85
2022/02/08 03:26:46;;;;;;;71.42;21.33;;;;;;;4.10;100.00;99889.77;1687500;84;21034;-85
2022/02/08 03:29:12;;;;;;;63.98;19.92;;;;;;;4.14;100.00;99885.30;1689096;84;21089;-84
2022/02/08 03:31:38;;;;;;;80.83;20.35;;;;;;;4.12;100.00;99878.05;1689254;84;20989;-85
2022/02/08 03:34:03;;;;;;;72.37;19.92;;;;;;;4.05;100.00;99864.84;1689352;84;20871;-84
2022/02/08 03:36:30;;;;;;;76.07;21.20;;;;;;;4.07;100.00;99881.43;1688807;84;21081;-83
2022/02/08 03:41:40;;;;;;;84.03;22.02;;;;;;;4.03;100.00;99872.27;1642493;87;21063;-83
2022/02/08 03:44:03;;;;;;;62.67;20.65;;;;;;;4.01;100.00;99884.51;1638779;87;21066;-83
2022/02/08 03:46:30;;;;;;;75.42;21.15;;;;;;;3.99;100.00;99877.78;1563313;91;21388;-82
2022/02/08 03:48:56;;;;;;;70.75;19.70;;;;;;;3.99;100.00;99883.92;1563256;91;21087;-83
2022/02/08 03:51:25;;;;;;;77.97;19.75;;;;;;;4.00;100.00;99886.90;1563673;91;20917;-82
2022/02/08 03:53:50;;;;;;;76.00;19.73;;;;;;;4.02;100.00;99884.78;1563003;91;21119;-83
2022/02/08 03:56:20;;;;;;;79.03;18.67;;;;;;;4.02;100.00;99882.13;1563632;91;20944;-83
2022/02/08 03:58:44;;;;;;;87.78;21.23;;;;;;;4.03;100.00;99885.09;1560200;91;21048;-82
2022/02/08 04:06:32;;;;;;;85.03;19.48;;;;;;;4.09;100.00;99885.48;1595342;89;21147;-83
2022/02/08 04:08:59;;;;;;;71.17;18.75;;;;;;;4.10;100.00;99891.63;1595206;89;20991;-82
2022/02/08 04:11:25;;;;;;;62.58;17.65;;;;;;;4.14;100.00;99891.96;1595446;89;21058;-82
2022/02/08 04:13:59;;;;;;;64.80;18.17;;;;;;;4.16;100.00;99889.88;1595215;89;21099;-82
2022/02/08 04:16:33;;;;;;;55.08;17.92;;;;;;;4.13;100.00;99895.69;1573404;89;21524;-82
2022/02/08 04:32:42;;;;;;;64.05;18.37;;;;;;;4.11;100.00;99911.91;1639884;87;21064;-81
2022/02/08 04:35:02;;;;;;;65.37;17.40;;;;;;;4.15;100.00;99913.08;1639938;87;21068;-82
2022/02/08 04:42:59;;;;;;;60.73;18.37;;;;;;;4.10;100.00;99908.95;1582402;84;21026;-83
2022/02/08 04:45:32;;;;;;;64.65;19.20;;;;;;;4.06;100.00;99909.15;1660172;85;21072;-83
2022/02/08 04:50:25;;;;;;;54.27;18.45;;;;;;;4.00;100.00;99908.72;1658082;85;21650;-83
2022/02/08 04:52:55;;;;;;;67.32;19.50;;;;;;;4.00;100.00;99909.55;1658020;84;21059;-83
2022/02/08 05:26:49;;;;;;;53.20;17.27;;;;;;;3.97;100.00;99913.19;1625613;87;21551;-83
2022/02/08 05:47:49;;;;;;;90.83;30.65;;;;;;;3.90;100.00;99952.48;1664334;84;21105;-84
2022/02/08 05:50:38;;;;;;;87.50;23.62;;;;;;;3.86;100.00;99960.95;1679815;83;21055;-84
2022/02/08 05:55:24;;;;;;;48.13;17.20;;;;;;;3.90;100.00;99971.14;1604592;86;21782;-85
2022/02/08 05:57:54;;;;;;;54.48;17.73;;;;;;;3.92;100.00;99969.07;1591171;85;21153;-84
2022/02/08 06:00:26;;;;;;;51.98;16.85;;;;;;;3.91;100.00;99969.56;1611201;87;21060;-85
2022/02/08 06:02:54;;;;;;;55.60;18.20;;;;;;;3.95;100.00;99976.08;1628821;85;21038;-85
2022/02/08 06:05:26;;;;;;;57.43;20.45;;;;;;;3.98;100.00;99970.81;1651279;86;21570;-85
2022/02/08 06:07:54;;;;;;;54.27;19.15;;;;;;;3.97;100.00;99982.00;1660939;84;21035;-85
2022/02/08 06:10:23;;;;;;;49.33;17.50;;;;;;;3.95;100.00;99973.41;1615593;85;21068;-85
2022/02/08 06:12:54;;;;;;;52.00;16.25;;;;;;;3.91;100.00;99978.09;1650015;84;21118;-85
2022/02/08 06:15:24;;;;;;;54.55;16.37;;;;;;;3.90;100.00;99981.28;1675894;82;21698;-84
2022/02/08 06:18:01;;;;;;;45.95;15.03;;;;;;;3.88;100.00;99980.69;1626030;84;21106;-85
2022/02/08 06:20:30;;;;;;;50.43;15.95;;;;;;;3.89;100.00;99982.86;1679681;84;21051;-85
2022/02/08 06:23:01;;;;;;;68.30;22.80;;;;;;;3.91;100.00;99987.42;1617303;86;21602;-85
2022/02/08 06:25:27;;;;;;;64.40;20.85;;;;;;;3.94;100.00;99992.28;1660941;84;21493;-84
2022/02/08 06:27:58;;;;;;;59.03;19.20;;;;;;;3.94;100.00;99997.12;1672822;84;22440;-85
2022/02/08 06:30:24;;;;;;;60.20;18.55;;;;;;;3.93;100.00;99996.81;1642209;84;21057;-84
2022/02/08 06:32:54;;;;;;;61.70;21.17;;;;;;;3.94;100.00;99995.78;1706915;81;21464;-83
2022/02/08 06:35:23;;;;;;;82.88;24.70;;;;;;;4.00;100.00;99999.36;1743007;80;21126;-83
2022/02/08 06:37:49;;;;;;;67.53;23.18;;;;;;;4.06;100.00;100001.12;1746330;81;21519;-83
2022/02/08 06:40:15;;;;;;;66.07;23.12;;;;;;;4.04;100.00;100005.34;1743569;81;21118;-91
2022/02/08 06:42:43;;;;;;;72.42;25.85;;;;;;;4.03;100.00;100002.89;1753672;79;21078;-89
2022/02/08 06:45:11;;;;;;;87.20;27.13;;;;;;;4.06;100.00;100013.13;1741918;80;21035;-89
2022/02/08 06:47:39;;;;;;;72.03;25.27;;;;;;;4.07;100.00;100010.73;1750148;80;21062;-88
2022/02/08 06:50:06;;;;;;;72.65;22.80;;;;;;;4.09;100.00;100019.33;1723261;80;21482;-88
2022/02/08 06:52:32;;;;;;;63.48;20.55;;;;;;;4.08;100.00;100015.02;1758164;79;21083;-88
2022/02/08 06:55:00;;;;;;;63.23;21.33;;;;;;;4.12;100.00;100022.86;1758024;80;21531;-91
2022/02/08 06:57:28;;;;;;;61.13;21.48;;;;;;;4.15;100.00;100026.89;1743648;80;21040;-90
2022/02/08 07:00:00;;;;;;;74.15;25.35;;;;;;;4.12;100.00;100024.69;1752757;80;21055;-90
2022/02/08 07:02:23;;;;;;;79.05;26.10;;;;;;;4.13;100.00;100027.67;1778896;80;21254;-90
2022/02/08 07:04:49;;;;;;;82.53;26.62;;;;;;;4.09;100.00;100024.66;1779378;80;21046;-90
2022/02/08 07:07:16;;;;;;;72.72;26.57;;;;;;;4.09;100.00;100025.99;1779142;80;20971;-90
2022/02/08 07:09:45;;;;;;;74.80;25.08;;;;;;;4.12;100.00;100032.69;1733853;82;34153;-90
2022/02/08 07:12:12;;;;;;;72.05;23.32;;;;;;;4.17;100.00;100036.81;1747055;81;21004;-89
2022/02/08 07:14:39;;;;;;;69.25;24.67;;;;;;;4.19;100.00;100035.55;1747586;82;20988;-90
2022/02/08 07:17:06;;;;;;;65.67;22.02;;;;;;;4.25;100.00;100033.81;1746783;80;21092;-90
2022/02/08 07:19:39;;;;;;;68.95;22.93;;;;;;;4.32;100.00;100035.83;1758663;80;21055;-89
2022/02/08 07:24:45;;;;;;;77.65;27.82;;;;;;;4.29;100.00;100010.95;1555781;91;21732;-92
2022/02/08 07:27:13;;;;;;;80.40;28.52;;;;;;;4.49;100.00;100035.94;1553102;92;22334;-91
2022/02/08 07:29:50;;;;;;;74.87;28.12;;;;;;;4.55;100.00;100039.81;1561379;91;21718;-91
2022/02/08 07:32:17;;;;;;;81.50;29.77;;;;;;;4.63;100.00;100036.52;1538886;92;21070;-92
2022/02/08 07:45:28;;;;;;;75.17;23.95;;;;;;;4.63;100.00;100048.53;1471940;96;22021;-88
2022/02/08 07:48:17;;;;;;;87.20;30.12;;;;;;;4.58;100.00;100044.41;1453455;96;22309;-90
2022/02/08 07:51:01;;;;;;;;;;;;;;;;;;;;;
2022/02/08 07:56:25;;;;;;;103.72;33.45;;;;;;;4.43;100.00;100031.02;1322632;105;21228;-90
2022/02/08 08:40:14;;;;;;;;;;;;;;;;;;;;;
2022/02/08 09:24:57;;;;;;;82.85;23.12;;;;;;;5.84;100.00;100089.34;1307904;108;21379;-87
2022/02/08 09:30:06;;;;;;;83.67;23.85;;;;;;;6.00;100.00;100081.11;1289161;109;21731;-87
2022/02/08 09:32:52;;;;;;;72.17;21.62;;;;;;;6.08;100.00;100080.69;1312110;107;21677;-87
2022/02/08 09:35:17;;;;;;;82.27;22.85;;;;;;;6.12;100.00;100082.38;1292109;107;21632;-88
2022/02/08 09:37:46;;;;;;;89.75;23.83;;;;;;;6.14;100.00;100078.38;1323774;107;21211;-87
2022/02/08 09:40:18;;;;;;;90.07;24.07;;;;;;;6.19;100.00;100078.19;1369640;103;21557;-87
2022/02/08 09:42:44;;;;;;;74.22;21.87;;;;;;;6.22;100.00;100081.72;1412241;97;21848;-87
2022/02/08 09:45:16;;;;;;;85.12;24.72;;;;;;;6.26;100.00;100084.17;1457346;95;21237;-88
2022/02/08 09:50:20;;;;;;;80.67;23.85;;;;;;;6.33;100.00;100091.00;1444039;98;21675;-88
2022/02/08 09:52:48;;;;;;;84.13;22.37;;;;;;;6.34;100.00;100085.11;1423455;99;21153;-88
2022/02/08 09:55:12;;;;;;;86.20;22.87;;;;;;;6.36;100.00;100085.69;1445603;98;21050;-88
2022/02/08 09:57:39;;;;;;;82.17;23.55;;;;;;;6.44;100.00;100084.45;1511736;93;21498;-88
2022/02/08 10:00:08;;;;;;;92.33;24.90;;;;;;;6.49;100.00;100079.17;1513506;94;21186;-87
2022/02/08 10:02:36;;;;;;;81.85;23.77;;;;;;;6.58;100.00;100087.07;1482455;94;21237;-87
2022/02/08 10:05:05;;;;;;;73.20;21.42;;;;;;;6.64;100.00;100075.91;1491330;94;21109;-87
2022/02/08 10:07:35;;;;;;;67.35;20.90;;;;;;;6.66;100.00;100079.96;1478968;94;21360;-87
2022/02/08 10:10:09;;;;;;;70.57;21.68;;;;;;;6.71;100.00;100074.69;1492115;95;21402;-87
2022/02/08 10:24:02;;;;;;;73.60;22.55;;;;;;;6.90;100.00;100079.21;1448869;97;22063;-87
2022/02/08 10:32:32;;;;;;;67.27;21.15;;;;;;;6.88;100.00;100086.67;1442863;98;21184;-87
2022/02/08 10:37:39;;;;;;;62.33;21.17;;;;;;;6.88;100.00;100077.83;1437569;97;21163;-88
2022/02/08 10:40:13;;;;;;;65.78;21.00;;;;;;;6.86;100.00;100082.65;1444398;97;21186;-87
2022/02/08 10:42:42;;;;;;;61.95;20.02;;;;;;;6.81;100.00;100092.22;1445701;98;21112;-87
2022/02/08 10:45:26;;;;;;;64.05;20.27;;;;;;;6.82;100.00;100092.52;1437884;99;21127;-87
2022/02/08 10:48:05;;;;;;;68.07;21.60;;;;;;;6.78;100.00;100094.05;1437833;99;21647;-87
2022/02/08 10:50:35;;;;;;;66.35;21.20;;;;;;;6.71;100.00;100094.77;1437525;99;21769;-87
2022/02/08 10:53:04;;;;;;;66.20;21.97;;;;;;;6.75;100.00;100091.87;1434957;98;21039;-87
2022/02/08 10:55:41;;;;;;;67.20;20.40;;;;;;;6.74;100.00;100089.45;1457551;98;21122;-87
2022/02/08 11:00:51;;;;;;;67.20;20.48;;;;;;;6.72;100.00;100089.69;1456906;97;21728;-87
2022/02/08 11:03:26;;;;;;;63.02;19.77;;;;;;;6.68;100.00;100091.25;1456292;97;21846;-86
2022/02/08 11:08:39;;;;;;;65.15;19.12;;;;;;;6.58;100.00;100092.42;1468518;95;21196;-87
2022/02/08 11:16:05;;;;;;;50.78;17.50;;;;;;;6.58;100.00;100093.77;1559975;90;21130;-87
2022/02/08 11:21:40;;;;;;;48.00;16.05;;;;;;;6.64;100.00;100094.12;1538766;92;21278;-87
2022/02/08 11:26:41;;;;;;;46.20;15.80;;;;;;;6.57;100.00;100106.88;1474153;94;21072;-87
2022/02/08 11:46:00;;;;;;;51.53;15.63;;;;;;;6.10;100.00;100124.06;1406973;100;21115;-86
2022/02/08 11:48:46;;;;;;;48.42;15.35;;;;;;;5.99;100.00;100126.27;1395604;101;26624;-86
2022/02/08 11:51:08;;;;;;;50.00;16.12;;;;;;;5.89;100.00;100128.22;1401212;100;21154;-86
2022/02/08 11:53:39;;;;;;;49.77;16.70;;;;;;;5.83;100.00;100127.84;1397563;102;21221;-87
2022/02/08 12:02:00;;;;;;;57.85;17.45;;;;;;;5.79;100.00;100137.91;1419560;99;21194;-87
2022/02/08 12:09:36;;;;;;;55.52;17.35;;;;;;;5.67;100.00;100153.47;1418097;100;21195;-87
2022/02/08 12:34:38;;;;;;;63.68;22.67;;;;;;;5.23;100.00;100159.83;1478501;96;21181;-87
2022/02/08 12:59:22;;;;;;;38.13;14.18;;;;;;;5.27;100.00;100196.75;1534324;92;21072;-88
2022/02/08 13:17:10;;;;;;;36.17;13.10;;;;;;;5.13;100.00;100223.70;1587204;90;21060;-87
2022/02/08 13:32:48;;;;;;;48.80;16.97;;;;;;;4.81;100.00;100228.56;1562003;90;21065;-87
2022/02/08 14:02:16;;;;;;;65.05;20.00;;;;;;;4.09;100.00;100286.77;1517951;93;21129;-88
2022/02/08 14:07:30;;;;;;;57.15;19.90;;;;;;;3.99;100.00;100287.80;1453772;97;21141;-87
2022/02/08 14:10:18;;;;;;;54.65;20.45;;;;;;;3.93;100.00;100294.55;1464675;97;21677;-86
2022/02/08 14:23:27;;;;;;;50.92;18.77;;;;;;;3.70;100.00;100303.20;1505804;92;21239;-88
2022/02/08 14:26:01;;;;;;;50.80;18.40;;;;;;;3.64;100.00;100311.05;1519274;92;21140;-87
2022/02/08 14:31:36;;;;;;;49.38;17.20;;;;;;;3.57;100.00;100315.64;1522611;92;21211;-84
2022/02/08 14:36:49;;;;;;;45.63;17.02;;;;;;;3.44;100.00;100319.75;1528506;92;21179;-85
2022/02/08 15:08:37;;;;;;;52.30;18.52;;;;;;;3.06;100.00;100381.10;1688110;84;21111;-86
2022/02/08 15:11:08;;;;;;;50.73;17.80;;;;;;;3.03;100.00;100382.38;1687896;84;21110;-86
2022/02/08 15:13:40;;;;;;;49.27;18.45;;;;;;;3.02;100.00;100395.89;1663271;84;21007;-86
2022/02/08 15:18:50;;;;;;;52.38;18.55;;;;;;;2.95;100.00;100398.59;1525325;91;21109;-87
2022/02/08 15:21:24;;;;;;;49.63;18.82;;;;;;;2.91;100.00;100402.70;1538722;93;21046;-87
2022/02/08 15:23:49;;;;;;;53.75;18.67;;;;;;;2.88;100.00;100403.13;1536580;92;21156;-86
2022/02/08 15:26:17;;;;;;;53.85;19.65;;;;;;;2.87;100.00;100408.97;1536038;91;21153;-86
2022/02/08 15:28:43;;;;;;;48.75;18.17;;;;;;;2.82;100.00;100405.31;1538619;93;21148;-86
2022/02/08 15:31:12;;;;;;;48.95;18.85;;;;;;;2.81;100.00;100403.70;1538548;91;21143;-88
2022/02/08 15:33:40;;;;;;;52.23;19.00;;;;;;;2.80;100.00;100408.73;1540211;93;21119;-89
2022/02/08 15:36:06;;;;;;;48.28;17.20;;;;;;;2.79;100.00;100417.72;1523333;94;21117;-89
2022/02/08 15:38:40;;;;;;;52.73;18.95;;;;;;;2.78;100.00;100418.23;1530250;92;21179;-88
2022/02/08 15:41:07;;;;;;;51.77;19.30;;;;;;;2.76;100.00;100426.13;1544642;92;21590;-86
2022/02/08 15:43:36;;;;;;;50.58;18.57;;;;;;;2.76;100.00;100422.95;1467697;96;21195;-87
2022/02/08 15:46:24;;;;;;;48.52;18.67;;;;;;;2.76;100.00;100426.94;1470093;96;21625;-87
2022/02/08 15:48:50;;;;;;;44.00;16.77;;;;;;;2.73;100.00;100425.51;1467783;97;21180;-88
2022/02/08 15:51:28;;;;;;;51.88;18.65;;;;;;;2.71;100.00;100424.93;1505343;95;21156;-87
2022/02/08 16:07:09;;;;;;;54.15;20.08;;;;;;;2.65;100.00;100424.97;1504131;95;21665;-87
2022/02/08 16:20:15;;;;;;;47.60;17.52;;;;;;;2.60;100.00;100450.86;1630519;87;21557;-85
2022/02/08 16:31:05;;;;;;;47.62;17.87;;;;;;;2.63;100.00;100462.41;1624911;87;21601;-87
2022/02/08 16:54:41;;;;;;;53.10;18.23;;;;;;;2.56;100.00;100454.98;1691084;83;21039;-87
2022/02/08 16:57:15;;;;;;;54.25;19.35;;;;;;;2.55;100.00;100461.83;1691617;84;21086;-87
2022/02/08 16:59:34;;;;;;;51.92;18.10;;;;;;;2.54;100.00;100469.51;1691821;83;21126;-88
2022/02/08 17:02:02;;;;;;;49.00;18.55;;;;;;;2.53;100.00;100467.86;1707611;83;21487;-88
2022/02/08 17:04:26;;;;;;;49.83;17.82;;;;;;;2.54;100.00;100467.66;1718073;82;21022;-88
2022/02/08 17:06:53;;;;;;;47.03;17.10;;;;;;;2.54;100.00;100466.85;1716356;83;21100;-86
2022/02/08 17:12:17;;;;;;;47.23;17.67;;;;;;;2.54;100.00;100476.16;1711971;82;21093;-85
2022/02/08 17:14:52;;;;;;;42.30;16.50;;;;;;;2.53;100.00;100478.50;1713495;83;21013;-87
2022/02/08 17:34:27;;;;;;;37.42;14.83;;;;;;;2.50;100.00;100477.91;1737492;81;21084;-88
2022/02/08 17:47:30;;;;;;;27.58;11.70;;;;;;;2.16;100.00;100477.67;1721423;81;21113;-88
2022/02/08 17:49:41;;;;;;;29.05;11.15;;;;;;;2.12;100.00;100476.47;1695943;84;21094;-89
2022/02/08 17:52:12;;;;;;;26.25;11.45;;;;;;;2.11;100.00;100476.66;1689538;82;21070;-89
2022/02/08 17:54:38;;;;;;;27.25;10.80;;;;;;;2.09;100.00;100476.04;1726923;82;21039;-89
2022/02/08 17:57:13;;;;;;;24.52;10.13;;;;;;;2.04;100.00;100470.84;1650806;84;21019;-88
2022/02/08 17:59:40;;;;;;;26.02;9.90;;;;;;;2.03;100.00;100473.73;1644055;84;21170;-88
2022/02/08 18:02:10;;;;;;;23.77;10.43;;;;;;;2.01;100.00;100491.19;1606175;86;21498;-88
2022/02/08 18:04:36;;;;;;;25.43;10.50;;;;;;;1.97;100.00;100485.99;1658122;84;21251;-88
2022/02/08 18:07:03;;;;;;;25.10;10.05;;;;;;;1.95;100.00;100488.03;1643405;85;21076;-88
2022/02/08 18:09:29;;;;;;;24.40;9.70;;;;;;;1.95;100.00;100485.89;1646084;85;21015;-88
2022/02/08 18:11:59;;;;;;;26.40;10.13;;;;;;;1.93;100.00;100486.08;1645371;87;21644;-86
2022/02/08 18:14:24;;;;;;;23.62;9.60;;;;;;;1.93;100.00;100479.95;1648208;84;21105;-88
2022/02/08 18:17:02;;;;;;;26.37;10.58;;;;;;;1.92;100.00;100491.61;1643997;86;21569;-87
2022/02/08 18:19:22;;;;;;;24.87;10.55;;;;;;;1.91;100.00;100491.29;1618443;86;21124;-87
2022/02/08 18:21:55;;;;;;;27.42;9.90;;;;;;;1.88;100.00;100487.72;1640322;86;21587;-87
2022/02/08 18:24:26;;;;;;;23.20;9.48;;;;;;;1.87;100.00;100482.92;1644678;84;21537;-87
2022/02/08 18:55:42;;;;;;;22.05;9.08;;;;;;;1.89;100.00;100527.38;1733942;82;21969;-87
2022/02/08 19:12:42;;;;;;;20.68;8.43;;;;;;;1.82;100.00;100539.83;1724488;82;21019;-87
2022/02/08 19:15:33;;;;;;;17.92;6.92;;;;;;;1.81;100.00;100529.72;1722501;82;21555;-88
2022/02/08 19:20:17;;;;;;;19.20;7.05;;;;;;;1.80;100.00;100545.36;1723246;81;21053;-87
2022/02/08 19:22:38;;;;;;;20.05;7.05;;;;;;;1.84;100.00;100544.95;1720951;82;21086;-88
2022/02/08 19:25:06;;;;;;;17.12;6.42;;;;;;;1.83;100.00;100548.64;1725509;82;21116;-87
2022/02/08 19:27:32;;;;;;;15.28;6.35;;;;;;;1.81;100.00;100550.16;1725180;83;21043;-87
2022/02/08 19:29:58;;;;;;;15.48;6.03;;;;;;;1.82;100.00;100553.11;1721866;82;21003;-87
2022/02/08 19:32:25;;;;;;;14.75;5.90;;;;;;;1.83;100.00;100551.30;1709463;83;21041;-86
2022/02/08 19:34:51;;;;;;;15.65;5.97;;;;;;;1.84;100.00;100566.20;1716229;83;21031;-86
2022/02/08 19:37:18;;;;;;;17.27;5.62;;;;;;;1.84;100.00;100562.22;1702301;82;21059;-86
2022/02/08 19:39:45;;;;;;;16.67;5.90;;;;;;;1.83;100.00;100563.25;1734692;82;21063;-87
2022/02/08 19:42:13;;;;;;;13.22;5.75;;;;;;;1.83;100.00;100558.75;1654222;84;21783;-87
2022/02/08 19:44:42;;;;;;;17.20;6.40;;;;;;;1.83;100.00;100563.25;1634207;84;21026;-87
2022/02/08 19:47:09;;;;;;;12.07;5.40;;;;;;;1.84;100.00;100564.88;1639157;87;21462;-87
2022/02/08 19:49:36;;;;;;;12.25;5.33;;;;;;;1.84;100.00;100563.55;1634182;87;21160;-85
2022/02/08 19:52:03;;;;;;;14.35;5.67;;;;;;;1.81;100.00;100572.22;1610239;88;21545;-86
2022/02/08 19:54:35;;;;;;;14.30;5.83;;;;;;;1.81;100.00;100568.75;1549931;92;21120;-85
2022/02/08 19:57:07;;;;;;;15.48;5.60;;;;;;;1.81;100.00;100575.40;1554989;92;21068;-86
2022/02/08 19:59:35;;;;;;;17.45;5.47;;;;;;;1.81;100.00;100575.40;1554715;92;21156;-86
2022/02/08 20:02:04;;;;;;;14.68;5.78;;;;;;;1.81;100.00;100574.06;1554875;92;21529;-86
2022/02/08 20:04:32;;;;;;;15.13;5.67;;;;;;;1.81;100.00;100572.74;1535928;92;21125;-85
2022/02/08 20:07:00;;;;;;;12.33;5.53;;;;;;;1.80;100.00;100574.58;1567238;89;21069;-85
2022/02/08 20:09:26;;;;;;;16.32;5.95;;;;;;;1.80;100.00;100573.77;1592099;88;21628;-85
2022/02/08 20:11:53;;;;;;;14.78;5.78;;;;;;;1.80;100.00;100565.28;1592535;89;21204;-86
2022/02/08 20:14:21;;;;;;;17.23;6.35;;;;;;;1.83;100.00;100572.55;1592805;88;21237;-86
2022/02/08 20:16:48;;;;;;;15.43;6.00;;;;;;;1.81;100.00;100568.23;1592221;89;21098;-86
2022/02/08 20:19:17;;;;;;;17.40;5.80;;;;;;;1.79;100.00;100575.61;1593730;88;21128;-86
2022/02/08 20:22:04;;;;;;;15.45;6.00;;;;;;;1.78;100.00;100577.13;1594799;88;21630;-86
2022/02/08 20:24:24;;;;;;;16.30;6.28;;;;;;;1.77;100.00;100576.31;1591695;88;21069;-86
2022/02/08 20:29:28;;;;;;;16.62;6.15;;;;;;;1.78;100.00;100577.13;1594958;88;21017;-86
2022/02/08 20:31:54;;;;;;;13.60;5.62;;;;;;;1.77;100.00;100572.33;1574133;88;21171;-86
2022/02/08 20:34:25;;;;;;;15.45;6.15;;;;;;;1.76;100.00;100574.66;1595639;88;21554;-86
2022/02/08 20:36:55;;;;;;;14.28;5.90;;;;;;;1.75;100.00;100573.55;1595058;88;21135;-86
2022/02/08 20:39:24;;;;;;;19.45;6.58;;;;;;;1.76;100.00;100577.83;1546800;91;21370;-86
2022/02/08 20:41:50;;;;;;;17.95;6.40;;;;;;;1.76;100.00;100583.96;1498815;95;21113;-86
2022/02/08 20:44:18;;;;;;;20.95;6.92;;;;;;;1.73;100.00;100575.58;1522241;91;21308;-86